createdAt,value
2022-11-06T00:02:47.528Z,2.80
2022-11-06T00:06:08.111Z,2.55
2022-11-06T00:09:12.375Z,2.20
2022-11-06T00:12:14.053Z,2.17
2022-11-06T00:15:16.311Z,1.87
2022-11-06T00:18:17.987Z,2.10
2022-11-06T00:21:24.542Z,1.92
2022-11-06T00:24:26.195Z,1.73
2022-11-06T00:27:28.241Z,1.77
2022-11-06T00:30:29.925Z,1.80
2022-11-06T00:33:31.680Z,1.87
2022-11-06T00:36:33.559Z,2.00
2022-11-06T00:39:35.208Z,2.17
2022-11-06T00:42:36.763Z,1.87
2022-11-06T00:45:38.325Z,2.05
2022-11-06T00:48:41.369Z,1.70
2022-11-06T00:51:43.139Z,2.40
2022-11-06T00:54:44.725Z,1.95
2022-11-06T00:57:46.297Z,2.12
2022-11-06T01:00:47.875Z,2.28
2022-11-06T01:03:56.384Z,1.80
2022-11-06T01:06:58.045Z,1.70
2022-11-06T01:09:59.629Z,1.60
2022-11-06T01:13:01.219Z,2.03
2022-11-06T01:16:06.193Z,1.67
2022-11-06T01:19:08.271Z,1.60
2022-11-06T01:22:09.939Z,1.45
2022-11-06T01:25:11.543Z,1.40
2022-11-06T01:28:13.330Z,1.98
2022-11-06T01:31:18.205Z,1.60
2022-11-06T01:34:19.855Z,1.60
2022-11-06T01:37:21.483Z,1.77
2022-11-06T01:40:23.146Z,1.65
2022-11-06T01:43:43.743Z,1.83
2022-11-06T01:46:45.366Z,1.50
2022-11-06T01:49:47.222Z,1.80
2022-11-06T01:52:51.032Z,1.60
2022-11-06T01:55:56.276Z,1.80
2022-11-06T01:58:57.997Z,1.65
2022-11-06T02:01:59.968Z,2.45
2022-11-06T02:05:01.723Z,1.70
2022-11-06T02:08:03.969Z,1.85
2022-11-06T02:11:05.602Z,1.73
2022-11-06T02:14:34.597Z,1.87
2022-11-06T02:17:39.316Z,2.00
2022-11-06T02:20:56.237Z,2.17
2022-11-06T02:24:36.150Z,2.58
2022-11-06T02:27:38.059Z,2.17
2022-11-06T02:30:45.863Z,2.15
2022-11-06T02:33:57.848Z,2.10
2022-11-06T02:37:04.706Z,1.58
2022-11-06T02:40:09.739Z,1.98
2022-11-06T02:43:14.480Z,1.45
2022-11-06T02:46:22.708Z,1.77
2022-11-06T02:49:40.229Z,2.00
2022-11-06T02:52:48.912Z,1.70
2022-11-06T02:55:53.735Z,1.67
2022-11-06T02:59:05.031Z,1.80
2022-11-06T03:02:11.892Z,1.83
2022-11-06T03:05:13.546Z,1.90
2022-11-06T03:08:25.769Z,2.10
2022-11-06T03:11:29.719Z,1.98
2022-11-06T03:14:54.573Z,2.10
2022-11-06T03:18:17.731Z,2.33
2022-11-06T03:21:27.035Z,2.45
2022-11-06T03:24:34.018Z,2.65
2022-11-06T03:27:40.648Z,2.47
2022-11-06T03:30:54.229Z,2.33
2022-11-06T03:34:01.701Z,2.08
2022-11-06T03:40:12.095Z,1.90
2022-11-06T03:43:17.877Z,1.90
2022-11-06T03:46:25.130Z,2.53
2022-11-06T03:49:56.007Z,2.03
2022-11-06T03:53:12.292Z,2.15
2022-11-06T03:56:29.324Z,1.85
2022-11-06T03:59:38.115Z,2.35
2022-11-06T04:02:44.069Z,2.03
2022-11-06T04:05:55.774Z,2.05
2022-11-06T04:09:20.430Z,1.73
2022-11-06T04:12:44.623Z,2.17
2022-11-06T04:15:52.879Z,1.98
2022-11-06T04:18:54.451Z,2.65
2022-11-06T04:22:28.948Z,2.50
2022-11-06T04:26:13.675Z,2.33
2022-11-06T04:29:17.887Z,2.10
2022-11-06T04:32:40.661Z,1.80
2022-11-06T04:35:57.913Z,2.25
2022-11-06T04:39:37.350Z,1.92
2022-11-06T04:42:41.789Z,2.25
2022-11-06T04:45:48.131Z,2.30
2022-11-06T04:48:50.263Z,2.58
2022-11-06T04:51:52.941Z,2.45
2022-11-06T04:54:58.193Z,2.83
2022-11-06T04:57:59.764Z,2.37
2022-11-06T05:01:01.411Z,2.30
2022-11-06T05:04:03.176Z,2.55
2022-11-06T05:07:04.856Z,2.58
2022-11-06T05:10:06.825Z,2.85
2022-11-06T05:13:08.387Z,2.62
2022-11-06T05:16:10.022Z,2.80
2022-11-06T05:19:11.699Z,2.75
2022-11-06T05:22:32.021Z,2.40
2022-11-06T05:25:38.408Z,2.42
2022-11-06T05:28:40.051Z,2.50
2022-11-06T05:31:41.661Z,2.50
2022-11-06T05:34:43.287Z,2.47
2022-11-06T05:37:44.905Z,2.50
2022-11-06T05:40:46.728Z,2.55
2022-11-06T05:43:48.296Z,2.40
2022-11-06T05:46:50.344Z,2.55
2022-11-06T05:49:52.116Z,3.10
2022-11-06T05:52:53.715Z,3.03
2022-11-06T05:55:55.316Z,2.92
2022-11-06T05:58:56.919Z,2.95
2022-11-06T06:01:59.608Z,3.47
2022-11-06T06:05:01.295Z,4.20
2022-11-06T06:08:02.869Z,3.30
2022-11-06T06:11:08.274Z,3.80
2022-11-06T06:14:09.853Z,3.90
2022-11-06T06:17:11.575Z,3.40
2022-11-06T06:20:13.623Z,4.00
2022-11-06T06:23:15.207Z,3.67
2022-11-06T06:26:16.948Z,3.62
2022-11-06T06:29:18.814Z,3.70
2022-11-06T06:32:20.417Z,5.43
2022-11-06T06:35:21.980Z,6.60
2022-11-06T06:38:23.933Z,6.72
2022-11-06T06:41:25.529Z,6.05
2022-11-06T06:44:27.935Z,5.40
2022-11-06T06:47:29.494Z,5.57
2022-11-06T06:50:31.533Z,4.40
2022-11-06T06:53:33.313Z,4.00
2022-11-06T06:56:34.929Z,4.30
2022-11-06T06:59:36.593Z,4.12
2022-11-06T07:02:38.168Z,3.50
2022-11-06T07:05:40.108Z,3.47
2022-11-06T07:08:41.691Z,3.90
2022-11-06T07:11:43.277Z,4.03
2022-11-06T07:14:44.919Z,3.33
2022-11-06T07:17:46.680Z,3.17
2022-11-06T07:20:48.304Z,4.20
2022-11-06T07:23:50.675Z,3.28
2022-11-06T07:26:52.232Z,3.50
2022-11-06T07:29:53.833Z,3.80
2022-11-06T07:32:55.436Z,4.00
2022-11-06T07:36:02.583Z,3.00
2022-11-06T07:39:04.288Z,3.55
2022-11-06T07:42:05.953Z,3.72
2022-11-06T07:45:08.245Z,3.83
2022-11-06T07:48:09.826Z,3.12
2022-11-06T07:51:11.869Z,3.58
2022-11-06T07:54:13.555Z,3.22
2022-11-06T07:57:15.113Z,2.97
2022-11-06T08:00:17.022Z,3.35
2022-11-06T08:03:19.472Z,3.03
2022-11-06T08:06:21.045Z,2.90
2022-11-06T08:09:25.103Z,3.28
2022-11-06T08:12:26.714Z,3.65
2022-11-06T08:15:28.288Z,3.50
2022-11-06T08:18:29.831Z,3.30
2022-11-06T08:21:31.461Z,3.60
2022-11-06T08:24:33.022Z,3.05
2022-11-06T08:27:34.668Z,3.00
2022-11-06T08:30:36.267Z,2.80
2022-11-06T08:33:39.180Z,2.92
2022-11-06T08:36:49.241Z,3.30
2022-11-06T08:39:51.299Z,3.40
2022-11-06T08:42:52.886Z,3.58
2022-11-06T08:45:54.512Z,3.00
2022-11-06T08:48:56.079Z,3.17
2022-11-06T08:51:57.649Z,2.90
2022-11-06T08:54:59.198Z,2.78
2022-11-06T08:58:01.195Z,2.60
2022-11-06T09:01:02.831Z,3.20
2022-11-06T09:04:05.961Z,3.35
2022-11-06T09:07:08.274Z,2.80
2022-11-06T09:10:09.970Z,2.92
2022-11-06T09:13:12.365Z,3.33
2022-11-06T09:16:16.128Z,2.80
2022-11-06T09:19:17.906Z,2.90
2022-11-06T09:22:19.870Z,2.47
2022-11-06T09:25:22.001Z,2.78
2022-11-06T09:28:23.811Z,3.65
2022-11-06T09:31:25.585Z,3.12
2022-11-06T09:34:27.275Z,3.22
2022-11-06T09:37:28.851Z,3.58
2022-11-06T09:40:35.301Z,3.50
2022-11-06T09:44:14.273Z,3.53
2022-11-06T09:47:28.191Z,3.45
2022-11-06T09:50:35.247Z,4.03
2022-11-06T09:53:41.484Z,3.67
2022-11-06T09:56:46.182Z,3.92
2022-11-06T09:59:50.164Z,3.85
2022-11-06T10:02:55.893Z,3.00
2022-11-06T10:05:57.634Z,3.58
2022-11-06T10:09:06.038Z,2.87
2022-11-06T10:12:20.719Z,3.35
2022-11-06T10:15:38.972Z,3.90
2022-11-06T10:19:11.932Z,4.05
2022-11-06T10:22:20.945Z,3.97
2022-11-06T10:25:39.521Z,4.10
2022-11-06T10:29:05.542Z,3.90
2022-11-06T10:32:35.402Z,3.70
2022-11-06T10:35:45.258Z,3.83
2022-11-06T10:38:49.167Z,3.42
2022-11-06T10:41:57.097Z,3.25
2022-11-06T10:45:02.565Z,3.40
2022-11-06T10:48:31.730Z,4.10
2022-11-06T10:51:45.118Z,3.58
2022-11-06T10:54:58.919Z,4.25
2022-11-06T10:58:14.289Z,3.62
2022-11-06T11:01:16.241Z,4.03
2022-11-06T11:04:18.034Z,3.50
2022-11-06T11:07:21.797Z,3.40
2022-11-06T11:10:23.498Z,3.15
2022-11-06T11:13:25.053Z,3.70
2022-11-06T11:16:34.455Z,4.90
2022-11-06T11:19:41.937Z,4.12
2022-11-06T11:22:43.845Z,3.08
2022-11-06T11:25:51.309Z,3.17
2022-11-06T11:28:59.196Z,3.60
2022-11-06T11:32:07.122Z,3.65
2022-11-06T11:35:11.399Z,3.78
2022-11-06T11:38:19.253Z,3.78
2022-11-06T11:41:21.145Z,3.47
2022-11-06T11:44:23.885Z,3.55
2022-11-06T11:47:25.688Z,3.30
2022-11-06T11:50:32.006Z,3.72
2022-11-06T11:53:35.187Z,3.15
2022-11-06T11:57:03.418Z,3.03
2022-11-06T12:00:16.624Z,3.42
2022-11-06T12:03:21.747Z,3.55
2022-11-06T12:06:23.625Z,3.92
2022-11-06T12:09:26.742Z,3.40
2022-11-06T12:12:33.939Z,4.18
2022-11-06T12:15:50.155Z,4.70
2022-11-06T12:18:58.892Z,3.47
2022-11-06T12:22:06.792Z,2.97
2022-11-06T12:25:40.181Z,2.70
2022-11-06T12:28:44.144Z,2.60
2022-11-06T12:31:55.315Z,2.90
2022-11-06T12:35:01.429Z,3.05
2022-11-06T12:38:35.108Z,2.78
2022-11-06T12:41:41.838Z,2.67
2022-11-06T12:44:47.887Z,2.90
2022-11-06T12:47:59.288Z,2.67
2022-11-06T12:51:03.988Z,2.47
2022-11-06T12:54:32.104Z,3.25
2022-11-06T12:57:45.782Z,2.78
2022-11-06T13:00:58.683Z,3.10
2022-11-06T13:04:25.838Z,3.03
2022-11-06T13:07:36.946Z,2.87
2022-11-06T13:10:45.173Z,3.75
2022-11-06T13:14:22.485Z,3.90
2022-11-06T13:18:04.190Z,3.42
2022-11-06T13:21:30.315Z,3.17
2022-11-06T13:24:35.849Z,2.70
2022-11-06T13:27:45.094Z,3.03
2022-11-06T13:30:48.564Z,3.95
2022-11-06T13:33:59.897Z,3.40
2022-11-06T13:37:02.292Z,4.03
2022-11-06T13:40:33.374Z,5.45
2022-11-06T13:43:44.720Z,3.37
2022-11-06T13:46:50.822Z,3.10
2022-11-06T13:50:01.956Z,3.22
2022-11-06T13:53:31.313Z,3.12
2022-11-06T13:56:54.589Z,3.20
2022-11-06T14:00:15.037Z,3.30
2022-11-06T14:03:36.179Z,2.80
2022-11-06T14:06:40.160Z,2.62
2022-11-06T14:09:45.885Z,3.25
2022-11-06T14:12:50.147Z,3.37
2022-11-06T14:16:04.332Z,3.67
2022-11-06T14:19:21.031Z,4.00
2022-11-06T14:22:30.438Z,3.62
2022-11-06T14:25:40.026Z,3.58
2022-11-06T14:28:46.682Z,3.45
2022-11-06T14:32:04.249Z,17.17
2022-11-06T14:35:34.460Z,13.77
2022-11-06T14:38:37.342Z,12.18
2022-11-06T14:41:55.266Z,3.90
2022-11-06T14:45:00.596Z,3.20
2022-11-06T14:48:02.595Z,3.87
2022-11-06T14:51:08.070Z,3.67
2022-11-06T14:54:24.877Z,3.47
